Time;durP1;ratioP1;P1;durP2;ratioP2;P2;SDS_P1;SDS_P2;PMS_P1;PMS_P2;Temp;Humidity;BMP_temperature;BMP_pressure;BME280_temperature;BME280_humidity;BME280_pressure;Samples;Min_cycle;Max_cycle;Signal;HPM_P1;HPM_P2
2022/12/24 00:00:26;;;;;;;1.50;0.30;;;6.30;99.90;;;;;;6244969;23;20016;-82
2022/12/24 00:02:52;;;;;;;0.00;0.00;;;6.30;99.90;;;;;;6219189;23;20012;-82
2022/12/24 00:05:18;;;;;;;2.22;0.47;;;6.30;99.90;;;;;;6217861;23;20027;-82
2022/12/24 00:07:43;;;;;;;0.53;0.37;;;6.30;99.90;;;;;;6243851;23;20016;-82
2022/12/24 00:10:12;;;;;;;0.73;0.30;;;6.30;99.90;;;;;;6218114;23;20023;-85
2022/12/24 00:12:38;;;;;;;0.60;0.60;;;6.30;99.90;;;;;;6217756;23;20087;-82
2022/12/24 00:15:04;;;;;;;1.07;0.43;;;6.30;99.90;;;;;;6218214;23;20044;-82
2022/12/24 00:17:30;;;;;;;0.35;0.35;;;6.30;99.90;;;;;;6193075;23;20103;-82
2022/12/24 00:19:56;;;;;;;0.50;0.20;;;6.30;99.90;;;;;;6243996;23;20082;-82
2022/12/24 00:22:22;;;;;;;1.60;0.50;;;6.40;99.90;;;;;;6217809;23;20026;-83
2022/12/24 00:24:48;;;;;;;0.23;0.20;;;6.30;99.90;;;;;;6243672;23;20388;-82
2022/12/24 00:27:13;;;;;;;0.30;0.30;;;6.30;99.90;;;;;;6216876;23;20023;-83
2022/12/24 00:29:39;;;;;;;1.53;0.60;;;6.50;99.90;;;;;;6216605;23;20070;-83
2022/12/24 00:32:08;;;;;;;1.30;0.40;;;6.30;99.90;;;;;;6216677;23;20019;-82
2022/12/24 00:34:35;;;;;;;1.20;0.28;;;6.30;99.90;;;;;;6215813;23;20062;-83
2022/12/24 00:37:01;;;;;;;0.35;0.35;;;6.30;99.90;;;;;;6192508;23;20031;-82
2022/12/24 00:39:27;;;;;;;1.13;0.47;;;6.40;99.90;;;;;;6216787;23;20012;-82
2022/12/24 00:41:53;;;;;;;1.00;0.17;;;6.30;99.90;;;;;;6192540;23;20098;-83
2022/12/24 00:44:18;;;;;;;0.00;0.00;;;6.40;99.90;;;;;;6241893;23;20059;-83
2022/12/24 00:46:44;;;;;;;1.20;0.47;;;6.30;99.90;;;;;;6242269;23;20016;-82
2022/12/24 00:49:11;;;;;;;0.53;0.23;;;6.30;99.90;;;;;;6242437;23;20016;-83
2022/12/24 00:51:37;;;;;;;1.02;0.25;;;6.40;99.90;;;;;;6217239;23;20046;-82
2022/12/24 00:54:04;;;;;;;2.55;0.77;;;6.30;99.90;;;;;;6243187;23;20020;-82
2022/12/24 00:56:30;;;;;;;2.10;1.35;;;6.30;99.90;;;;;;6242182;23;20091;-83
2022/12/24 00:58:56;;;;;;;1.25;0.90;;;6.30;99.90;;;;;;6241891;23;20476;-83
2022/12/24 01:01:22;;;;;;;4.00;0.67;;;6.30;99.90;;;;;;6216999;23;20024;-83
2022/12/24 01:03:48;;;;;;;0.40;0.40;;;6.40;99.90;;;;;;6243448;23;20086;-82
2022/12/24 01:06:17;;;;;;;0.57;0.30;;;5.40;99.90;;;;;;6242651;23;20055;-82
2022/12/24 01:08:43;;;;;;;0.52;0.35;;;6.40;99.90;;;;;;6243812;22;20475;-82
2022/12/24 01:11:10;;;;;;;0.40;0.25;;;6.40;99.90;;;;;;6216387;23;20138;-83
2022/12/24 01:13:36;;;;;;;1.70;0.60;;;5.50;99.90;;;;;;6216493;23;20023;-82
2022/12/24 01:16:02;;;;;;;0.10;0.10;;;6.40;99.90;;;;;;6191486;23;20019;-82
2022/12/24 01:18:28;;;;;;;1.80;0.80;;;6.40;99.90;;;;;;6190899;23;20050;-82
2022/12/24 01:21:02;;;;;;;0.43;0.43;;;6.40;99.90;;;;;;6191787;23;20019;-84
2022/12/24 01:23:29;;;;;;;0.80;0.80;;;6.30;99.90;;;;;;6216563;23;20507;-88
2022/12/24 01:25:59;;;;;;;1.52;0.63;;;6.40;99.90;;;;;;6217055;23;20449;-83
2022/12/24 01:28:25;;;;;;;0.50;0.28;;;6.40;99.90;;;;;;6216643;23;20070;-84
2022/12/24 01:30:51;;;;;;;3.30;0.93;;;6.40;99.90;;;;;;6217420;23;20016;-82
2022/12/24 01:33:16;;;;;;;0.33;0.33;;;6.40;99.90;;;;;;6242333;23;20121;-82
2022/12/24 01:35:43;;;;;;;0.73;0.57;;;6.40;99.90;;;;;;6190665;23;20039;-82
2022/12/24 01:38:10;;;;;;;0.82;0.65;;;6.30;99.90;;;;;;6242427;23;20019;-82
2022/12/24 01:43:28;;;;;;;2.38;1.08;;;6.40;99.90;;;;;;6220959;23;20079;-86
2022/12/24 01:45:59;;;;;;;0.10;0.10;;;6.40;99.90;;;;;;6242104;23;20348;-82
2022/12/24 01:48:33;;;;;;;0.80;0.65;;;6.40;99.90;;;;;;6243025;22;20471;-83
2022/12/24 01:51:22;;;;;;;0.55;0.30;;;6.40;99.90;;;;;;6242412;23;20020;-83
2022/12/24 01:53:53;;;;;;;1.90;0.98;;;6.30;99.90;;;;;;6197590;23;20019;-82
2022/12/24 01:56:20;;;;;;;1.73;0.40;;;6.40;99.90;;;;;;6242280;23;20027;-82
2022/12/24 01:58:50;;;;;;;2.25;0.55;;;6.40;99.90;;;;;;6192589;23;20012;-82
2022/12/24 02:01:16;;;;;;;0.77;0.22;;;6.30;99.90;;;;;;6243108;23;20341;-82
2022/12/24 02:03:42;;;;;;;0.43;0.43;;;6.30;99.90;;;;;;6242367;23;20094;-82
2022/12/24 02:06:11;;;;;;;1.25;0.85;;;6.30;99.90;;;;;;6216637;23;20340;-82
2022/12/24 02:08:40;;;;;;;0.93;0.40;;;6.40;99.90;;;;;;6218231;23;20016;-82
2022/12/24 02:11:18;;;;;;;1.77;1.25;;;6.40;99.90;;;;;;6244440;23;20072;-83
2022/12/24 02:13:49;;;;;;;1.35;0.63;;;6.40;99.90;;;;;;6244739;23;20405;-82
2022/12/24 02:16:49;;;;;;;0.25;0.05;;;7.30;99.90;;;;;;6244921;23;20016;-82
2022/12/24 02:19:56;;;;;;;0.52;0.45;;;6.50;99.90;;;;;;6219394;23;20016;-82
2022/12/24 02:23:14;;;;;;;1.98;0.32;;;6.50;99.90;;;;;;6246608;22;20067;-82
2022/12/24 02:25:55;;;;;;;4.80;0.65;;;6.60;99.90;;;;;;6243724;23;20015;-83
2022/12/24 02:28:24;;;;;;;1.77;0.38;;;6.60;99.90;;;;;;6243819;23;20020;-83
2022/12/24 02:30:56;;;;;;;2.35;0.45;;;6.70;99.90;;;;;;6243670;23;20024;-83
2022/12/24 02:33:41;;;;;;;1.30;0.65;;;6.70;99.90;;;;;;6218635;23;20024;-86
2022/12/24 02:36:06;;;;;;;0.55;0.30;;;6.80;99.90;;;;;;6242749;23;20441;-83
2022/12/24 02:38:57;;;;;;;1.60;0.80;;;6.90;99.90;;;;;;6243362;23;20067;-83
2022/12/24 02:42:04;;;;;;;0.70;0.20;;;7.00;99.90;;;;;;6244093;23;20016;-82
2022/12/24 02:44:21;;;;;;;0.10;0.10;;;7.00;99.90;;;;;;6242861;23;20078;-82
2022/12/24 02:46:48;;;;;;;0.60;0.13;;;7.10;99.90;;;;;;6242672;23;20110;-82
2022/12/24 02:49:14;;;;;;;1.10;0.20;;;7.20;99.90;;;;;;6218389;23;20055;-86
2022/12/24 02:51:39;;;;;;;0.33;0.20;;;7.20;99.90;;;;;;6243339;23;20349;-84
2022/12/24 02:54:06;;;;;;;0.57;0.40;;;7.30;99.90;;;;;;6193145;23;20048;-82
2022/12/24 02:56:37;;;;;;;0.10;0.10;;;7.30;99.90;;;;;;6242630;23;20123;-86
2022/12/24 02:59:24;;;;;;;0.40;0.30;;;7.40;99.90;;;;;;6242897;23;20050;-82
2022/12/24 03:02:10;;;;;;;1.05;0.43;;;7.40;99.90;;;;;;6217915;23;20019;-82
2022/12/24 03:05:06;;;;;;;1.77;0.30;;;7.50;99.90;;;;;;6191861;23;20016;-82
2022/12/24 03:07:51;;;;;;;1.10;0.20;;;7.50;99.90;;;;;;6218448;23;20020;-82
2022/12/24 03:10:23;;;;;;;1.15;0.30;;;7.50;99.90;;;;;;6217860;23;20062;-82
2022/12/24 03:12:57;;;;;;;0.47;0.47;;;7.50;99.90;;;;;;6216961;23;20028;-84
2022/12/24 03:15:24;;;;;;;0.00;0.00;;;7.60;99.90;;;;;;6242931;23;20022;-82
2022/12/24 03:17:53;;;;;;;0.50;0.28;;;7.60;99.90;;;;;;6244215;22;20021;-82
2022/12/24 03:20:24;;;;;;;0.10;0.10;;;7.60;99.90;;;;;;6243238;23;20031;-83
2022/12/24 03:22:50;;;;;;;0.20;0.20;;;7.60;99.90;;;;;;6217579;23;20066;-82
2022/12/24 03:25:16;;;;;;;0.00;0.00;;;7.70;99.90;;;;;;6193203;23;20095;-82
2022/12/24 03:27:43;;;;;;;0.80;0.32;;;7.60;99.90;;;;;;6216486;23;20045;-82
2022/12/24 03:30:13;;;;;;;0.22;0.22;;;7.70;99.90;;;;;;6243023;23;20345;-82
2022/12/24 03:32:39;;;;;;;0.10;0.10;;;7.70;99.90;;;;;;6244131;22;20024;-82
2022/12/24 03:35:06;;;;;;;0.00;0.00;;;7.70;99.90;;;;;;6242493;23;20051;-82
2022/12/24 03:37:32;;;;;;;0.10;0.05;;;7.70;99.90;;;;;;6242736;23;20016;-82
2022/12/24 03:39:57;;;;;;;0.23;0.20;;;7.80;99.90;;;;;;6242635;23;20479;-89
2022/12/24 03:42:23;;;;;;;0.03;0.03;;;7.80;99.90;;;;;;6242997;23;20027;-82
2022/12/24 03:44:49;;;;;;;0.00;0.00;;;7.80;99.90;;;;;;6192662;23;20518;-82
2022/12/24 03:47:15;;;;;;;0.10;0.00;;;7.80;99.90;;;;;;6192113;23;20016;-82
2022/12/24 03:49:40;;;;;;;0.70;0.20;;;7.80;99.90;;;;;;6216845;23;20012;-84
2022/12/24 03:52:06;;;;;;;0.00;0.00;;;7.80;99.90;;;;;;6192779;23;20020;-83
2022/12/24 03:54:32;;;;;;;0.30;0.30;;;7.80;99.90;;;;;;6217302;23;20097;-82
2022/12/24 03:56:57;;;;;;;0.00;0.00;;;7.70;99.90;;;;;;6241607;23;20098;-82
2022/12/24 03:59:23;;;;;;;0.77;0.03;;;7.80;99.90;;;;;;6217467;23;20028;-82
2022/12/24 04:01:49;;;;;;;0.10;0.10;;;7.80;99.90;;;;;;6191945;23;20031;-85
2022/12/24 04:04:15;;;;;;;0.00;0.00;;;7.80;99.90;;;;;;6242728;23;20020;-82
2022/12/24 04:06:41;;;;;;;0.00;0.00;;;7.80;99.90;;;;;;6192406;23;20019;-87
2022/12/24 04:09:06;;;;;;;0.00;0.00;;;7.80;99.90;;;;;;6244079;23;20314;-82
2022/12/24 04:11:32;;;;;;;0.10;0.10;;;7.80;99.90;;;;;;6192328;23;20348;-82
2022/12/24 04:13:58;;;;;;;0.10;0.10;;;7.80;99.90;;;;;;6216563;23;20378;-83
2022/12/24 04:16:24;;;;;;;0.10;0.10;;;7.80;99.90;;;;;;6192040;23;20027;-82
2022/12/24 04:18:50;;;;;;;0.00;0.00;;;7.80;99.90;;;;;;6216696;23;20357;-82
2022/12/24 04:21:16;;;;;;;0.10;0.10;;;7.80;99.90;;;;;;6192012;23;20099;-83
2022/12/24 04:23:42;;;;;;;0.00;0.00;;;7.80;99.90;;;;;;6217636;23;20078;-81
2022/12/24 04:26:10;;;;;;;0.00;0.00;;;7.80;99.90;;;;;;6242346;23;20023;-84
2022/12/24 04:28:37;;;;;;;0.10;0.10;;;7.80;99.90;;;;;;6217004;23;20436;-82
2022/12/24 04:31:07;;;;;;;;;;;7.80;99.90;;;;;;6242210;23;20543;-82
2022/12/24 04:33:34;;;;;;;0.00;0.00;;;7.80;99.90;;;;;;6242916;23;19922;-83
2022/12/24 04:36:01;;;;;;;0.08;0.08;;;7.80;99.90;;;;;;6241511;23;20023;-86
2022/12/24 04:38:28;;;;;;;0.00;0.00;;;7.80;99.90;;;;;;6242405;23;20027;-82
2022/12/24 04:41:03;;;;;;;0.00;0.00;;;7.80;99.90;;;;;;6242083;23;20098;-81
2022/12/24 04:43:29;;;;;;;0.25;0.10;;;7.80;99.90;;;;;;6243269;23;20123;-82
2022/12/24 04:45:55;;;;;;;1.30;0.75;;;7.80;99.90;;;;;;6241722;23;20445;-82
2022/12/24 04:48:21;;;;;;;0.00;0.00;;;7.80;99.90;;;;;;6243750;23;20028;-82
2022/12/24 04:50:46;;;;;;;0.00;0.00;;;7.80;99.90;;;;;;6216107;23;20008;-85
2022/12/24 04:53:13;;;;;;;0.00;0.00;;;7.80;99.90;;;;;;6242617;23;20012;-82
2022/12/24 04:55:48;;;;;;;3.20;0.10;;;7.80;99.90;;;;;;6192599;23;20016;-82
2022/12/24 04:58:14;;;;;;;0.10;0.10;;;7.80;99.90;;;;;;6242328;23;20035;-83
2022/12/24 05:00:40;;;;;;;0.00;0.00;;;7.80;99.90;;;;;;6242052;23;20437;-83
2022/12/24 05:03:06;;;;;;;0.95;0.20;;;7.70;99.90;;;;;;6241769;23;20016;-82
2022/12/24 05:05:31;;;;;;;0.00;0.00;;;7.80;99.90;;;;;;6191953;23;20062;-82
2022/12/24 05:07:57;;;;;;;0.20;0.10;;;7.70;99.90;;;;;;6241516;23;20016;-82
2022/12/24 05:10:23;;;;;;;0.10;0.10;;;7.70;99.90;;;;;;6242737;23;20020;-83
2022/12/24 05:12:48;;;;;;;0.17;0.10;;;7.70;99.90;;;;;;6217957;23;20337;-82
2022/12/24 05:15:14;;;;;;;0.67;0.10;;;7.70;99.90;;;;;;6218038;23;20016;-83
2022/12/24 05:17:40;;;;;;;0.00;0.00;;;7.70;99.90;;;;;;6217774;23;20085;-82
2022/12/24 05:20:06;;;;;;;0.00;0.00;;;7.70;99.90;;;;;;6243031;23;20091;-82
2022/12/24 05:28:02;;;;;;;0.00;0.00;;;7.70;99.90;;;;;;6196391;23;20016;-82
2022/12/24 05:30:27;;;;;;;0.07;0.07;;;7.70;99.90;;;;;;6243401;23;20092;-82
2022/12/24 05:32:53;;;;;;;0.00;0.00;;;7.60;99.90;;;;;;6242994;23;20045;-83
2022/12/24 05:35:19;;;;;;;0.10;0.10;;;7.60;99.90;;;;;;6217982;23;20448;-82
2022/12/24 05:37:44;;;;;;;0.43;0.20;;;7.60;99.90;;;;;;6192727;23;20024;-85
2022/12/24 05:40:10;;;;;;;0.00;0.00;;;7.60;99.90;;;;;;6242822;23;20016;-82
2022/12/24 05:42:36;;;;;;;0.23;0.23;;;7.60;99.90;;;;;;6243500;23;20016;-82
2022/12/24 05:45:02;;;;;;;0.00;0.00;;;7.50;99.90;;;;;;6243562;23;20380;-82
2022/12/24 05:47:28;;;;;;;0.00;0.00;;;7.60;99.90;;;;;;6218404;23;20090;-84
2022/12/24 05:49:53;;;;;;;0.10;0.10;;;7.50;99.90;;;;;;6243430;23;20070;-88
2022/12/24 05:52:19;;;;;;;0.00;0.00;;;7.50;99.90;;;;;;6194084;23;20020;-82
2022/12/24 05:54:45;;;;;;;0.20;0.20;;;7.40;99.90;;;;;;6218637;23;20437;-82
2022/12/24 05:57:11;;;;;;;0.27;0.13;;;7.50;99.90;;;;;;6192668;23;20024;-82
2022/12/24 05:59:36;;;;;;;0.00;0.00;;;7.50;99.90;;;;;;6243940;23;20012;-82
2022/12/24 06:02:02;;;;;;;1.30;0.10;;;7.40;99.90;;;;;;6218006;23;20034;-83
2022/12/24 06:04:28;;;;;;;0.30;0.00;;;7.40;99.90;;;;;;6245745;22;20020;-82
2022/12/24 06:06:54;;;;;;;0.07;0.00;;;7.40;99.90;;;;;;6243702;23;20016;-82
2022/12/24 06:09:19;;;;;;;0.00;0.00;;;7.40;99.90;;;;;;6242626;23;20078;-82
2022/12/24 06:11:45;;;;;;;0.57;0.00;;;7.40;99.90;;;;;;6191346;23;20067;-82
2022/12/24 06:14:11;;;;;;;0.00;0.00;;;7.40;99.90;;;;;;6163975;23;20031;-82
2022/12/24 06:16:36;;;;;;;0.00;0.00;;;7.40;99.90;;;;;;6139763;23;20139;-82
2022/12/24 06:19:02;;;;;;;0.83;0.10;;;7.40;99.90;;;;;;6164231;23;20450;-82
2022/12/24 06:21:28;;;;;;;0.00;0.00;;;7.40;99.90;;;;;;6140385;23;20024;-82
2022/12/24 06:23:53;;;;;;;0.10;0.00;;;7.50;99.90;;;;;;6164985;23;20016;-82
2022/12/24 06:26:21;;;;;;;0.00;0.00;;;7.40;99.90;;;;;;6164234;23;20023;-81
2022/12/24 06:28:48;;;;;;;0.00;0.00;;;7.50;99.90;;;;;;6188820;23;20017;-82
2022/12/24 06:31:17;;;;;;;0.00;0.00;;;7.50;99.90;;;;;;6188877;23;20020;-82
2022/12/24 06:33:43;;;;;;;0.00;0.00;;;7.50;99.90;;;;;;6189621;23;20016;-82
2022/12/24 06:36:13;;;;;;;0.30;0.30;;;7.50;99.90;;;;;;6188968;23;20381;-82
2022/12/24 06:38:38;;;;;;;0.28;0.28;;;7.50;99.90;;;;;;6164813;23;20024;-82
2022/12/24 06:41:05;;;;;;;1.13;0.40;;;7.50;99.90;;;;;;6163644;23;20016;-83
2022/12/24 06:43:33;;;;;;;0.20;0.15;;;7.50;99.90;;;;;;6189576;23;20016;-82
2022/12/24 06:46:00;;;;;;;0.10;0.10;;;7.50;99.90;;;;;;6188571;23;20457;-83
2022/12/24 06:48:26;;;;;;;0.20;0.20;;;7.50;99.90;;;;;;6163201;23;20028;-82
2022/12/24 06:50:52;;;;;;;0.30;0.20;;;7.50;99.90;;;;;;6163078;23;20016;-82
2022/12/24 06:53:18;;;;;;;0.00;0.00;;;7.40;99.90;;;;;;6215504;23;20441;-82
2022/12/24 06:55:43;;;;;;;0.43;0.20;;;7.50;99.90;;;;;;6163164;23;20028;-83
2022/12/24 06:58:09;;;;;;;0.43;0.10;;;7.40;99.90;;;;;;6162958;23;20071;-82
2022/12/24 07:00:35;;;;;;;0.50;0.30;;;7.40;99.90;;;;;;6163055;23;20059;-82
2022/12/24 07:03:01;;;;;;;0.10;0.10;;;7.40;99.90;;;;;;6162338;23;20055;-82
2022/12/24 07:05:27;;;;;;;0.43;0.20;;;7.40;99.90;;;;;;6161659;23;20021;-82
2022/12/24 07:07:53;;;;;;;0.07;0.07;;;7.40;99.90;;;;;;6187772;23;20027;-83
2022/12/24 07:10:20;;;;;;;0.00;0.00;;;7.50;99.90;;;;;;6187001;23;20248;-82
2022/12/24 07:12:46;;;;;;;0.08;0.00;;;7.50;99.90;;;;;;6216923;23;20333;-83
2022/12/24 07:15:12;;;;;;;0.00;0.00;;;7.60;99.90;;;;;;6217417;23;20024;-83
2022/12/24 07:17:38;;;;;;;0.10;0.10;;;7.60;99.90;;;;;;6193530;23;20083;-82
2022/12/24 07:20:06;;;;;;;11.57;0.20;;;7.70;99.90;;;;;;6216315;23;20066;-83
2022/12/24 07:22:32;;;;;;;0.10;0.10;;;7.70;99.90;;;;;;6217597;23;20012;-82
2022/12/24 07:24:57;;;;;;;0.00;0.00;;;7.70;99.90;;;;;;6245486;23;20388;-83
2022/12/24 07:27:23;;;;;;;0.10;0.10;;;7.70;99.90;;;;;;6192424;23;20016;-82
2022/12/24 07:29:48;;;;;;;0.00;0.00;;;7.70;99.90;;;;;;6167477;23;20153;-85
2022/12/24 07:32:14;;;;;;;0.20;0.20;;;7.70;99.90;;;;;;6167627;23;20031;-82
2022/12/24 07:34:40;;;;;;;0.10;0.10;;;7.80;99.90;;;;;;6244767;23;20047;-82
2022/12/24 07:37:06;;;;;;;0.00;0.00;;;7.80;99.90;;;;;;6167489;23;20092;-81
2022/12/24 07:39:32;;;;;;;0.20;0.20;;;7.80;99.90;;;;;;6217423;23;20078;-82
2022/12/24 07:41:58;;;;;;;0.00;0.00;;;7.80;99.90;;;;;;6217950;23;20012;-83
2022/12/24 07:44:24;;;;;;;0.17;0.10;;;7.70;99.90;;;;;;6166644;23;20020;-83
2022/12/24 07:46:50;;;;;;;0.10;0.10;;;7.80;99.90;;;;;;6191072;23;20051;-84
2022/12/24 07:49:16;;;;;;;0.10;0.10;;;7.70;99.90;;;;;;6190553;23;20421;-85
2022/12/24 07:51:41;;;;;;;0.10;0.10;;;7.80;99.90;;;;;;6192563;23;20053;-85
2022/12/24 07:54:07;;;;;;;1.30;0.60;;;7.80;99.90;;;;;;6192553;23;20456;-83
2022/12/24 07:56:33;;;;;;;0.17;0.10;;;7.80;99.90;;;;;;6192436;23;20020;-85
2022/12/24 07:58:59;;;;;;;0.00;0.00;;;7.80;99.90;;;;;;6167917;23;20108;-87
2022/12/24 08:01:24;;;;;;;0.07;0.00;;;7.80;99.90;;;;;;6191804;23;20108;-87
2022/12/24 08:03:53;;;;;;;0.63;0.20;;;7.80;99.90;;;;;;6193062;23;20020;-85
2022/12/24 08:06:19;;;;;;;0.10;0.10;;;7.80;99.90;;;;;;6193554;23;20093;-84
2022/12/24 08:08:45;;;;;;;0.00;0.00;;;7.80;99.90;;;;;;6168477;23;20027;-88
2022/12/24 08:11:13;;;;;;;0.10;0.10;;;7.90;99.90;;;;;;6217411;23;20329;-91
2022/12/24 08:13:40;;;;;;;0.10;0.10;;;7.80;99.90;;;;;;6143182;23;20032;-87
2022/12/24 08:16:06;;;;;;;1.45;0.30;;;7.90;99.90;;;;;;6191715;23;20026;-85
2022/12/24 08:18:34;;;;;;;0.10;0.10;;;7.90;99.90;;;;;;6216187;23;20059;-83
2022/12/24 08:21:00;;;;;;;0.00;0.00;;;7.90;99.90;;;;;;6143409;23;20070;-84
2022/12/24 08:23:26;;;;;;;1.33;0.13;;;7.90;99.90;;;;;;6191629;23;20360;-84
2022/12/24 08:25:52;;;;;;;0.00;0.00;;;8.00;99.90;;;;;;6191462;23;20053;-83
2022/12/24 08:28:19;;;;;;;1.17;0.03;;;8.00;99.90;;;;;;6216270;23;20093;-80
2022/12/24 08:30:48;;;;;;;0.57;0.10;;;7.90;99.90;;;;;;6217583;23;20367;-82
2022/12/24 08:33:15;;;;;;;0.85;0.00;;;7.30;99.90;;;;;;6219398;23;20020;-84
2022/12/24 08:35:45;;;;;;;0.03;0.03;;;8.00;99.90;;;;;;6218596;23;20333;-81
2022/12/24 08:38:11;;;;;;;0.85;0.30;;;8.00;99.90;;;;;;6218969;23;20008;-81
2022/12/24 08:40:36;;;;;;;0.07;0.07;;;8.00;99.90;;;;;;6167776;23;20047;-81
2022/12/24 08:43:02;;;;;;;0.00;0.00;;;8.10;99.90;;;;;;6192942;23;20016;-82
2022/12/24 08:45:28;;;;;;;0.00;0.00;;;8.00;99.90;;;;;;6166842;23;20591;-82
2022/12/24 08:47:53;;;;;;;0.00;0.00;;;8.10;99.90;;;;;;6191243;23;20051;-82
2022/12/24 08:50:19;;;;;;;0.50;0.17;;;8.00;99.90;;;;;;6217130;23;20329;-81
2022/12/24 08:52:44;;;;;;;0.00;0.00;;;8.00;99.90;;;;;;6167603;23;20058;-82
2022/12/24 08:55:10;;;;;;;0.00;0.00;;;8.10;99.90;;;;;;6192279;23;20012;-81
2022/12/24 08:57:37;;;;;;;0.40;0.20;;;8.00;99.90;;;;;;6191010;23;20039;-82
2022/12/24 09:00:05;;;;;;;0.20;0.20;;;8.10;99.90;;;;;;6217104;23;20024;-84
2022/12/24 09:02:30;;;;;;;1.30;0.77;;;8.10;99.90;;;;;;6216194;23;20016;-82
2022/12/24 09:04:56;;;;;;;0.20;0.10;;;8.10;99.90;;;;;;6191659;23;20319;-81
2022/12/24 09:07:22;;;;;;;0.00;0.00;;;8.10;99.90;;;;;;6190561;23;20095;-82
2022/12/24 09:09:47;;;;;;;0.00;0.00;;;8.10;99.90;;;;;;6216894;23;20040;-82
2022/12/24 09:12:14;;;;;;;;;;;8.10;99.90;;;;;;6167576;23;20024;-82
2022/12/24 09:14:40;;;;;;;0.32;0.32;;;8.20;99.90;;;;;;6216761;23;19982;-81
2022/12/24 09:17:05;;;;;;;0.70;0.20;;;8.20;99.90;;;;;;6217243;23;20318;-81
2022/12/24 09:19:31;;;;;;;0.50;0.30;;;8.20;99.90;;;;;;6245467;23;20027;-80
2022/12/24 09:21:57;;;;;;;0.07;0.07;;;8.30;99.90;;;;;;6243904;23;20016;-82
2022/12/24 09:24:22;;;;;;;0.00;0.00;;;8.30;99.90;;;;;;6193682;23;20031;-82
2022/12/24 09:26:48;;;;;;;0.57;0.30;;;8.40;99.90;;;;;;6218701;23;20062;-81
2022/12/24 09:29:15;;;;;;;0.30;0.10;;;8.40;99.90;;;;;;6219052;23;20016;-81
2022/12/24 09:31:41;;;;;;;0.90;0.40;;;8.50;99.90;;;;;;6218239;23;20092;-82
2022/12/24 09:34:07;;;;;;;0.20;0.20;;;8.50;99.90;;;;;;6245663;23;20421;-81
2022/12/24 09:36:33;;;;;;;0.00;0.00;;;8.50;99.90;;;;;;6194116;23;20016;-81
2022/12/24 09:38:59;;;;;;;0.25;0.22;;;8.60;99.90;;;;;;6193560;23;20027;-82
2022/12/24 09:41:48;;;;;;;0.43;0.30;;;8.60;99.90;;;;;;6192901;23;20016;-84
2022/12/24 09:44:52;;;;;;;0.20;0.10;;;8.60;99.90;;;;;;6193647;23;20020;-86
2022/12/24 09:47:43;;;;;;;0.30;0.10;;;8.60;99.90;;;;;;6215210;23;20023;-85
2022/12/24 09:50:34;;;;;;;0.70;0.63;;;8.60;99.90;;;;;;6218588;23;20538;-88
2022/12/24 09:53:03;;;;;;;0.68;0.30;;;8.60;99.90;;;;;;6217972;23;20032;-83
2022/12/24 09:55:33;;;;;;;0.85;0.47;;;8.60;99.90;;;;;;6217476;23;20118;-83
2022/12/24 09:58:01;;;;;;;0.00;0.00;;;8.60;99.90;;;;;;6192808;23;20019;-83
2022/12/24 10:00:34;;;;;;;2.58;0.30;;;8.60;99.90;;;;;;6193143;23;20019;-83
2022/12/24 10:03:00;;;;;;;0.30;0.10;;;8.60;99.90;;;;;;6219131;23;20091;-82
2022/12/24 10:05:31;;;;;;;0.00;0.00;;;8.50;99.90;;;;;;6195080;23;20062;-82
2022/12/24 10:08:09;;;;;;;0.00;0.00;;;8.50;99.90;;;;;;6194459;23;20013;-81
2022/12/24 10:10:43;;;;;;;0.10;0.10;;;8.50;99.90;;;;;;6193212;23;20027;-82
2022/12/24 10:13:27;;;;;;;0.10;0.10;;;8.50;99.90;;;;;;6194060;23;20078;-81
2022/12/24 10:16:10;;;;;;;0.30;0.20;;;8.50;99.90;;;;;;6219613;23;20012;-82
2022/12/24 10:18:40;;;;;;;0.75;0.15;;;8.40;99.90;;;;;;6192841;23;20020;-83
2022/12/24 10:21:14;;;;;;;0.00;0.00;;;8.40;99.90;;;;;;6193553;23;20020;-81
2022/12/24 10:24:05;;;;;;;0.75;0.10;;;8.40;99.90;;;;;;6192886;23;20357;-81
2022/12/24 10:26:43;;;;;;;0.08;0.00;;;8.40;99.90;;;;;;6218852;23;20024;-82
2022/12/24 10:29:21;;;;;;;0.10;0.00;;;8.40;99.90;;;;;;6194216;23;20042;-82
2022/12/24 10:31:57;;;;;;;0.00;0.00;;;8.50;99.90;;;;;;6193735;23;20027;-81
2022/12/24 10:34:26;;;;;;;0.52;0.47;;;8.50;99.90;;;;;;6244548;23;20066;-82
2022/12/24 10:36:52;;;;;;;0.25;0.20;;;8.50;99.90;;;;;;6192798;23;20054;-82
2022/12/24 10:39:22;;;;;;;0.10;0.10;;;8.60;99.90;;;;;;6193782;23;20024;-81
2022/12/24 10:41:51;;;;;;;0.20;0.10;;;8.60;99.90;;;;;;6218161;23;20035;-82
2022/12/24 10:44:21;;;;;;;0.13;0.13;;;8.60;99.90;;;;;;6194054;23;20020;-84
2022/12/24 10:46:46;;;;;;;0.00;0.00;;;8.60;99.90;;;;;;6217830;23;20148;-82
2022/12/24 10:49:21;;;;;;;0.10;0.10;;;8.70;99.90;;;;;;6192982;23;20084;-83
2022/12/24 10:51:55;;;;;;;0.17;0.17;;;8.70;99.90;;;;;;6244246;23;20301;-83
2022/12/24 10:54:23;;;;;;;0.00;0.00;;;8.80;99.90;;;;;;6193494;23;20012;-82
2022/12/24 10:56:54;;;;;;;1.48;0.25;;;8.80;99.90;;;;;;6193364;23;20012;-82
2022/12/24 10:59:27;;;;;;;0.10;0.10;;;8.90;99.90;;;;;;6219054;23;20103;-82
2022/12/24 11:01:55;;;;;;;0.30;0.30;;;9.00;99.90;;;;;;6216387;23;20063;-83
2022/12/24 11:04:29;;;;;;;0.10;0.10;;;9.00;99.90;;;;;;6192803;23;20052;-83
2022/12/24 11:06:57;;;;;;;0.10;0.10;;;9.00;99.90;;;;;;6193398;23;20031;-83
2022/12/24 11:09:45;;;;;;;0.38;0.38;;;9.00;99.90;;;;;;6218092;23;20048;-83
2022/12/24 11:12:22;;;;;;;0.52;0.10;;;9.00;99.90;;;;;;6215637;23;20016;-83
2022/12/24 11:14:58;;;;;;;0.20;0.20;;;9.00;99.90;;;;;;6189541;23;20028;-83
2022/12/24 11:17:23;;;;;;;0.10;0.08;;;9.00;99.90;;;;;;6218888;23;20024;-82
2022/12/24 11:19:50;;;;;;;0.00;0.00;;;9.00;99.90;;;;;;6192822;23;20388;-83
2022/12/24 11:22:23;;;;;;;0.63;0.13;;;9.00;99.90;;;;;;6168377;23;20016;-82
2022/12/24 11:25:21;;;;;;;0.00;0.00;;;9.00;99.90;;;;;;6193639;23;20302;-82
2022/12/24 11:27:50;;;;;;;0.00;0.00;;;9.00;99.90;;;;;;6243909;23;20016;-82
2022/12/24 11:30:16;;;;;;;0.00;0.00;;;8.90;99.90;;;;;;6218598;23;20027;-83
2022/12/24 11:32:49;;;;;;;0.00;0.00;;;9.00;99.90;;;;;;6217855;23;20016;-83
2022/12/24 11:35:23;;;;;;;0.13;0.13;;;8.90;99.90;;;;;;6192965;23;20341;-82
2022/12/24 11:38:01;;;;;;;0.80;0.47;;;8.90;99.90;;;;;;6192504;23;20020;-82
2022/12/24 11:40:35;;;;;;;0.00;0.00;;;8.90;99.90;;;;;;6195660;23;20016;-82
2022/12/24 11:43:01;;;;;;;0.25;0.10;;;8.90;99.90;;;;;;6193417;23;20059;-82
2022/12/24 11:45:31;;;;;;;1.55;0.35;;;8.90;99.90;;;;;;6193526;23;20059;-82
2022/12/24 11:48:00;;;;;;;0.10;0.10;;;8.90;99.90;;;;;;6216687;23;20464;-82
2022/12/24 11:50:31;;;;;;;0.20;0.00;;;8.90;99.90;;;;;;6192561;23;20024;-82
2022/12/24 11:53:21;;;;;;;0.00;0.00;;;8.90;99.90;;;;;;6192103;23;20046;-85
2022/12/24 11:55:48;;;;;;;0.00;0.00;;;8.90;99.90;;;;;;6191788;23;20031;-82
2022/12/24 11:58:32;;;;;;;0.20;0.20;;;8.90;99.90;;;;;;6192005;23;20050;-82
2022/12/24 12:01:16;;;;;;;0.45;0.08;;;8.90;99.90;;;;;;6190337;23;20020;-81
2022/12/24 12:03:49;;;;;;;1.00;0.25;;;9.00;99.90;;;;;;6217344;23;20031;-83
2022/12/24 12:06:55;;;;;;;0.00;0.00;;;9.00;99.90;;;;;;6191383;23;20020;-82
2022/12/24 12:09:25;;;;;;;0.30;0.10;;;9.00;99.90;;;;;;6217432;23;20012;-83
2022/12/24 12:11:57;;;;;;;2.25;0.30;;;8.90;99.90;;;;;;6219404;23;20030;-85
2022/12/24 12:14:41;;;;;;;0.00;0.00;;;9.00;99.90;;;;;;6220470;23;20420;-87
2022/12/24 12:17:25;;;;;;;0.10;0.10;;;9.00;99.90;;;;;;6216210;23;20345;-82
2022/12/24 12:20:27;;;;;;;0.28;0.28;;;8.90;99.90;;;;;;6216814;23;20107;-82
2022/12/24 12:23:12;;;;;;;0.10;0.10;;;8.90;99.90;;;;;;6217033;23;20031;-82
2022/12/24 12:25:54;;;;;;;0.00;0.00;;;8.90;99.90;;;;;;6217386;23;20016;-81
2022/12/24 12:28:42;;;;;;;0.00;0.00;;;9.00;99.90;;;;;;6191041;23;20074;-83
2022/12/24 12:31:08;;;;;;;0.20;0.20;;;9.00;99.90;;;;;;6216746;23;20085;-81
2022/12/24 12:33:51;;;;;;;0.10;0.00;;;9.00;99.90;;;;;;6217006;23;20016;-82
2022/12/24 12:36:24;;;;;;;0.13;0.13;;;9.00;99.90;;;;;;6217493;23;20020;-81
2022/12/24 12:38:50;;;;;;;0.08;0.03;;;9.00;99.90;;;;;;6216209;23;20091;-82
2022/12/24 12:41:44;;;;;;;0.00;0.00;;;9.50;99.90;;;;;;6191562;23;20024;-84
2022/12/24 12:44:40;;;;;;;0.03;0.03;;;9.00;99.90;;;;;;6191658;23;20099;-82
2022/12/24 12:47:15;;;;;;;0.10;0.10;;;9.00;99.90;;;;;;6191831;23;20406;-82
2022/12/24 12:50:07;;;;;;;0.15;0.15;;;8.90;99.90;;;;;;6192172;23;20020;-82
2022/12/24 12:52:41;;;;;;;0.00;0.00;;;8.90;99.90;;;;;;6192040;23;20020;-83
2022/12/24 12:56:16;;;;;;;0.00;0.00;;;8.90;99.90;;;;;;6192796;23;20637;-84
2022/12/24 12:58:54;;;;;;;0.10;0.10;;;8.90;99.90;;;;;;6067130;23;20018;-83
2022/12/24 13:01:33;;;;;;;0.10;0.10;;;8.90;99.90;;;;;;6243549;23;20428;-82
2022/12/24 13:04:13;;;;;;;0.00;0.00;;;8.90;99.90;;;;;;6216137;23;20020;-83
2022/12/24 13:06:51;;;;;;;0.10;0.10;;;8.80;99.90;;;;;;6192319;23;20483;-83
2022/12/24 13:09:30;;;;;;;0.35;0.13;;;8.80;99.90;;;;;;6191600;23;20027;-82
2022/12/24 13:12:25;;;;;;;0.00;0.00;;;8.80;99.90;;;;;;6214931;23;20453;-82
2022/12/24 13:15:05;;;;;;;0.00;0.00;;;8.80;99.90;;;;;;6199302;23;20099;-82
2022/12/24 13:17:40;;;;;;;1.25;0.00;;;8.80;99.90;;;;;;6191867;23;20051;-82
2022/12/24 13:20:14;;;;;;;0.15;0.15;;;8.80;99.90;;;;;;6216979;23;20016;-82
2022/12/24 13:22:56;;;;;;;0.40;0.20;;;8.80;99.90;;;;;;6191315;23;20078;-82